Time;durP1;ratioP1;P1;durP2;ratioP2;P2;SDS_P1;SDS_P2;PMS_P1;PMS_P2;Temp;Humidity;BMP_temperature;BMP_pressure;BME280_temperature;BME280_humidity;BME280_pressure;Samples;Min_cycle;Max_cycle;Signal;HPM_P1;HPM_P2
2021/11/18 00:01:14;;;;;;;14.60;5.35;;;6.70;99.90;;;;;;5069975;28;20028;-42
2021/11/18 00:03:40;;;;;;;10.35;5.63;;;6.70;99.90;;;;;;5069589;28;20057;-43
2021/11/18 00:06:06;;;;;;;10.68;5.32;;;6.60;99.90;;;;;;5068732;28;20020;-43
2021/11/18 00:08:32;;;;;;;10.27;5.32;;;6.60;99.90;;;;;;5069390;28;20024;-42
2021/11/18 00:11:00;;;;;;;12.98;5.70;;;6.60;99.90;;;;;;5070200;28;20019;-42
2021/11/18 00:13:32;;;;;;;12.73;5.47;;;6.60;99.90;;;;;;5068425;28;20076;-42
2021/11/18 00:15:58;;;;;;;8.88;5.15;;;6.60;99.90;;;;;;5068712;28;20118;-43
2021/11/18 00:18:28;;;;;;;10.90;5.00;;;6.50;99.90;;;;;;5069757;28;20047;-43
2021/11/18 00:21:01;;;;;;;8.23;4.80;;;6.50;99.90;;;;;;5064838;28;20097;-43
2021/11/18 00:23:29;;;;;;;;;;;6.50;99.90;;;;;;5069755;28;20024;-43
2021/11/18 00:25:54;;;;;;;8.60;4.70;;;6.50;99.90;;;;;;5068514;28;20677;-43
2021/11/18 00:28:20;;;;;;;9.27;5.00;;;6.50;99.90;;;;;;5069642;28;20474;-43
2021/11/18 00:30:45;;;;;;;11.07;5.13;;;6.50;99.90;;;;;;5068835;28;20024;-42
2021/11/18 00:33:12;;;;;;;8.93;5.20;;;6.50;99.90;;;;;;5068561;28;20036;-43
2021/11/18 00:35:37;;;;;;;12.00;4.95;;;6.40;99.90;;;;;;5069031;28;20024;-43
2021/11/18 00:38:04;;;;;;;11.48;4.82;;;6.50;99.90;;;;;;5069032;28;20028;-41
2021/11/18 00:40:35;;;;;;;11.82;5.32;;;6.40;99.90;;;;;;5067088;28;20029;-42
2021/11/18 00:43:02;;;;;;;9.30;5.28;;;6.40;99.90;;;;;;5069511;28;20039;-43
2021/11/18 00:45:28;;;;;;;9.18;4.60;;;6.40;99.90;;;;;;5068612;28;20028;-43
2021/11/18 00:47:55;;;;;;;12.30;5.78;;;6.40;99.90;;;;;;5068645;28;20426;-43
2021/11/18 00:50:25;;;;;;;8.23;4.80;;;6.40;99.90;;;;;;5068939;28;20031;-41
2021/11/18 00:52:52;;;;;;;10.00;5.15;;;6.40;99.90;;;;;;5068445;28;20174;-44
2021/11/18 00:55:17;;;;;;;9.48;5.22;;;6.40;99.90;;;;;;5068213;28;20050;-42
2021/11/18 00:57:44;;;;;;;8.05;5.13;;;6.40;99.90;;;;;;5069126;28;20103;-42
2021/11/18 01:00:13;;;;;;;11.32;5.63;;;6.30;99.90;;;;;;5068414;28;20023;-42
2021/11/18 01:02:39;;;;;;;10.60;5.60;;;6.30;99.90;;;;;;5067587;28;20020;-43
2021/11/18 01:05:08;;;;;;;13.75;4.47;;;6.30;99.90;;;;;;5068135;28;20729;-42
2021/11/18 01:07:34;;;;;;;12.48;4.95;;;6.30;99.90;;;;;;5068650;28;20021;-43
2021/11/18 01:09:59;;;;;;;8.98;4.88;;;6.30;99.90;;;;;;5067790;28;20093;-42
2021/11/18 01:12:25;;;;;;;12.13;4.95;;;6.30;99.90;;;;;;5068117;28;20040;-43
2021/11/18 01:14:51;;;;;;;11.07;5.03;;;6.30;99.90;;;;;;5067750;28;20534;-42
2021/11/18 01:17:17;;;;;;;13.00;4.95;;;6.30;99.90;;;;;;5067848;28;20075;-41
2021/11/18 01:19:43;;;;;;;9.18;4.90;;;6.30;99.90;;;;;;5068340;28;20025;-43
2021/11/18 01:22:09;;;;;;;6.85;4.68;;;6.30;99.90;;;;;;5067681;28;20136;-43
2021/11/18 01:24:39;;;;;;;12.07;4.93;;;6.30;99.90;;;;;;5068161;28;20029;-43
2021/11/18 01:27:05;;;;;;;11.38;4.80;;;6.30;99.90;;;;;;5067876;28;20024;-43
2021/11/18 01:29:33;;;;;;;7.60;4.63;;;6.30;99.90;;;;;;5067261;28;20495;-43
2021/11/18 01:31:59;;;;;;;7.30;4.28;;;6.30;99.90;;;;;;5067777;28;20034;-43
2021/11/18 01:34:26;;;;;;;11.02;4.63;;;6.30;99.90;;;;;;5068349;28;20036;-43
2021/11/18 01:36:52;;;;;;;12.98;5.57;;;6.30;99.90;;;;;;5066795;28;21290;-42
2021/11/18 01:39:17;;;;;;;14.07;5.25;;;6.30;99.90;;;;;;5068100;28;20036;-42
2021/11/18 01:41:43;;;;;;;11.68;5.53;;;6.30;99.90;;;;;;5067621;28;20017;-44
2021/11/18 01:44:16;;;;;;;11.52;5.22;;;6.30;99.90;;;;;;5066886;28;20039;-43
2021/11/18 01:46:42;;;;;;;8.27;4.25;;;6.30;99.90;;;;;;5067637;28;20031;-43
2021/11/18 01:49:09;;;;;;;13.18;5.10;;;6.30;99.90;;;;;;5067536;28;20028;-42
2021/11/18 01:51:43;;;;;;;11.57;4.65;;;6.30;99.90;;;;;;5066950;28;20550;-43
2021/11/18 01:54:10;;;;;;;12.93;5.05;;;6.30;99.90;;;;;;5064554;28;20028;-43
2021/11/18 01:56:37;;;;;;;10.10;5.15;;;6.30;99.90;;;;;;5067578;28;20039;-43
2021/11/18 01:59:19;;;;;;;9.60;5.30;;;6.30;99.90;;;;;;5066780;28;20032;-43
2021/11/18 02:01:47;;;;;;;10.27;5.10;;;6.30;99.90;;;;;;5067564;28;20540;-43
2021/11/18 02:04:17;;;;;;;10.18;5.03;;;6.30;99.90;;;;;;5065619;28;20016;-43
2021/11/18 02:06:50;;;;;;;8.93;4.30;;;6.30;99.90;;;;;;5067365;28;20033;-43
2021/11/18 02:09:23;;;;;;;9.82;5.10;;;6.40;99.90;;;;;;5067004;28;20421;-43
2021/11/18 02:11:50;;;;;;;;;;;6.40;99.90;;;;;;5067035;28;20494;-43
2021/11/18 02:14:23;;;;;;;11.32;4.55;;;6.30;99.90;;;;;;5067376;28;20429;-41
2021/11/18 02:16:50;;;;;;;8.80;4.30;;;6.30;99.90;;;;;;5067422;28;20045;-43
2021/11/18 02:19:17;;;;;;;9.75;4.70;;;6.30;99.90;;;;;;5066579;28;20069;-43
2021/11/18 02:21:49;;;;;;;15.65;5.20;;;6.30;99.90;;;;;;5047169;28;20036;-43
2021/11/18 02:24:25;;;;;;;12.23;4.90;;;6.30;99.90;;;;;;5062500;28;20024;-43
2021/11/18 02:26:51;;;;;;;8.88;5.18;;;6.20;99.90;;;;;;5066262;28;20484;-43
2021/11/18 02:29:18;;;;;;;11.57;5.20;;;6.20;99.90;;;;;;5067711;28;20108;-44
2021/11/18 02:31:57;;;;;;;9.63;5.10;;;6.20;99.90;;;;;;5067044;28;20021;-43
2021/11/18 02:34:38;;;;;;;10.30;4.82;;;6.20;99.90;;;;;;5066247;28;20031;-43
2021/11/18 02:37:04;;;;;;;13.32;6.05;;;6.20;99.90;;;;;;5067308;28;20024;-43
2021/11/18 02:39:30;;;;;;;11.52;5.55;;;6.20;99.90;;;;;;5066370;28;21190;-43
2021/11/18 02:41:55;;;;;;;9.98;5.25;;;6.20;99.90;;;;;;5066768;28;20471;-43
2021/11/18 02:44:21;;;;;;;10.63;5.30;;;6.20;99.90;;;;;;5067293;28;20024;-42
2021/11/18 02:46:46;;;;;;;13.85;5.50;;;6.30;99.90;;;;;;5066871;28;20027;-43
2021/11/18 02:49:15;;;;;;;11.70;5.85;;;6.30;99.90;;;;;;5066935;28;20036;-43
2021/11/18 02:51:40;;;;;;;10.32;6.07;;;6.30;99.90;;;;;;5066786;28;20027;-43
2021/11/18 02:54:06;;;;;;;11.20;5.63;;;6.40;99.90;;;;;;5066094;28;20025;-42
2021/11/18 02:56:32;;;;;;;10.90;5.90;;;6.40;99.90;;;;;;5067003;28;20095;-42
2021/11/18 02:58:59;;;;;;;11.02;6.15;;;6.40;99.90;;;;;;5067112;28;20052;-41
2021/11/18 03:01:30;;;;;;;10.23;5.95;;;6.50;99.90;;;;;;5066219;28;20035;-42
2021/11/18 03:03:56;;;;;;;14.30;6.43;;;6.50;99.90;;;;;;5070384;28;20142;-42
2021/11/18 03:06:21;;;;;;;12.00;6.10;;;6.60;99.90;;;;;;5071054;28;20109;-44
2021/11/18 03:08:48;;;;;;;10.80;5.50;;;6.60;99.90;;;;;;5070486;28;20067;-43
2021/11/18 03:11:16;;;;;;;11.88;5.68;;;6.60;99.90;;;;;;5070556;28;20036;-43
2021/11/18 03:13:42;;;;;;;10.93;6.07;;;6.60;99.90;;;;;;5070738;28;20610;-43
2021/11/18 03:16:09;;;;;;;15.85;5.95;;;6.70;99.90;;;;;;5069641;28;20060;-42
2021/11/18 03:18:34;;;;;;;12.52;5.60;;;6.70;99.90;;;;;;5070393;28;20058;-42
2021/11/18 03:21:04;;;;;;;10.38;6.30;;;6.70;99.90;;;;;;5070679;28;20027;-44
2021/11/18 03:23:30;;;;;;;10.80;5.82;;;6.70;99.90;;;;;;5069941;28;20025;-42
2021/11/18 03:25:56;;;;;;;11.57;5.72;;;6.80;99.90;;;;;;5070331;28;20016;-43
2021/11/18 03:28:27;;;;;;;11.05;6.07;;;6.80;99.90;;;;;;5070497;28;20462;-44
2021/11/18 03:30:53;;;;;;;15.77;6.10;;;6.80;99.90;;;;;;5070078;28;20107;-43
2021/11/18 03:33:39;;;;;;;11.48;5.82;;;6.80;99.90;;;;;;5070352;28;20108;-43
2021/11/18 03:36:05;;;;;;;16.27;6.70;;;6.80;99.90;;;;;;5069730;28;20016;-43
2021/11/18 03:38:31;;;;;;;13.13;6.00;;;6.90;99.90;;;;;;5070303;28;20380;-43
2021/11/18 03:41:03;;;;;;;10.73;5.88;;;6.80;99.90;;;;;;5069940;28;20031;-43
2021/11/18 03:43:33;;;;;;;11.38;5.55;;;6.90;99.90;;;;;;5069393;28;20053;-43
2021/11/18 03:45:59;;;;;;;12.18;5.95;;;6.90;99.90;;;;;;5069901;28;20100;-43
2021/11/18 03:48:29;;;;;;;12.13;6.10;;;6.90;99.90;;;;;;5070141;28;20051;-43
2021/11/18 03:50:55;;;;;;;11.98;5.82;;;7.00;99.90;;;;;;5069181;28;20119;-43
2021/11/18 03:53:23;;;;;;;10.10;5.75;;;6.90;99.90;;;;;;5070207;28;20032;-43
2021/11/18 03:55:49;;;;;;;9.20;5.93;;;7.00;99.90;;;;;;5069633;28;20107;-43
2021/11/18 03:58:15;;;;;;;13.15;5.85;;;7.00;99.90;;;;;;5069579;28;20111;-43
2021/11/18 04:00:41;;;;;;;13.68;5.95;;;7.00;99.90;;;;;;5070225;28;20028;-42
2021/11/18 04:03:09;;;;;;;11.77;5.97;;;7.00;99.90;;;;;;5069391;28;20112;-42
2021/11/18 04:05:36;;;;;;;12.77;5.65;;;7.00;99.90;;;;;;5068871;28;20047;-43
2021/11/18 04:08:02;;;;;;;11.10;5.55;;;7.00;99.90;;;;;;5069037;28;20024;-42
2021/11/18 04:10:32;;;;;;;13.93;5.60;;;7.00;99.90;;;;;;5069914;28;20016;-42
2021/11/18 04:12:59;;;;;;;10.70;5.07;;;7.10;99.90;;;;;;5068776;28;20028;-43
2021/11/18 04:15:27;;;;;;;15.45;5.95;;;7.10;99.90;;;;;;5068285;28;20040;-43
2021/11/18 04:17:53;;;;;;;13.80;5.57;;;7.10;99.90;;;;;;5068903;28;20388;-42
2021/11/18 04:20:19;;;;;;;13.07;5.95;;;7.10;99.90;;;;;;5069384;28;20472;-43
2021/11/18 04:22:47;;;;;;;13.98;6.38;;;7.20;99.90;;;;;;5069315;28;20023;-42
2021/11/18 04:25:17;;;;;;;15.63;5.70;;;7.10;99.90;;;;;;5069007;28;20032;-43
2021/11/18 04:27:43;;;;;;;12.00;5.35;;;7.10;99.90;;;;;;5069141;28;20060;-43
2021/11/18 04:30:13;;;;;;;9.88;5.32;;;7.20;99.90;;;;;;5069072;28;20528;-44
2021/11/18 04:32:41;;;;;;;13.95;5.93;;;7.20;99.90;;;;;;5068457;28;20047;-42
2021/11/18 04:35:08;;;;;;;12.68;5.50;;;7.20;99.90;;;;;;5068845;28;20652;-43
2021/11/18 04:37:34;;;;;;;13.93;5.90;;;7.20;99.90;;;;;;5068885;28;20050;-43
2021/11/18 04:40:00;;;;;;;17.77;6.00;;;7.20;99.90;;;;;;5068676;28;20112;-44
2021/11/18 04:42:32;;;;;;;15.25;6.00;;;7.20;99.90;;;;;;5068774;28;20458;-43
2021/11/18 04:44:57;;;;;;;13.32;6.07;;;7.20;99.90;;;;;;5068547;28;20021;-43
2021/11/18 04:47:26;;;;;;;16.05;6.57;;;7.20;99.90;;;;;;5068660;28;20475;-43
2021/11/18 04:49:52;;;;;;;12.00;5.95;;;7.30;99.90;;;;;;5068950;28;20020;-43
2021/11/18 04:52:18;;;;;;;14.00;5.88;;;7.30;99.90;;;;;;5069350;28;20068;-44
2021/11/18 04:54:47;;;;;;;11.80;5.43;;;7.30;99.90;;;;;;5068272;28;20101;-42
2021/11/18 04:57:13;;;;;;;14.20;5.78;;;7.30;99.90;;;;;;5068536;28;20031;-43
2021/11/18 04:59:42;;;;;;;16.48;5.80;;;7.30;99.90;;;;;;5068180;28;20659;-43
2021/11/18 05:02:08;;;;;;;12.32;5.07;;;7.40;99.90;;;;;;5068091;28;20121;-43
2021/11/18 05:04:34;;;;;;;13.88;5.90;;;7.40;99.90;;;;;;5068374;28;20063;-43
2021/11/18 05:06:59;;;;;;;13.27;6.25;;;7.30;99.90;;;;;;5067818;28;20032;-43
2021/11/18 05:09:25;;;;;;;16.17;6.60;;;7.30;99.90;;;;;;5068248;28;20032;-43
2021/11/18 05:11:51;;;;;;;11.27;6.20;;;7.30;99.90;;;;;;5068429;28;20033;-42
2021/11/18 05:14:17;;;;;;;13.85;6.50;;;7.30;99.90;;;;;;5067740;28;20308;-43
2021/11/18 05:16:46;;;;;;;13.57;7.03;;;7.30;99.90;;;;;;5068167;28;20523;-42
2021/11/18 05:19:11;;;;;;;16.92;7.25;;;7.30;99.90;;;;;;5068070;28;20032;-43
2021/11/18 05:21:41;;;;;;;13.40;6.63;;;7.30;99.90;;;;;;5067271;28;20033;-42
2021/11/18 05:24:07;;;;;;;14.15;6.40;;;7.30;99.90;;;;;;5067980;28;20020;-42
2021/11/18 05:26:33;;;;;;;18.02;7.05;;;7.30;99.90;;;;;;5068011;28;20033;-41
2021/11/18 05:28:58;;;;;;;18.15;7.72;;;7.30;99.90;;;;;;5066755;28;20040;-42
2021/11/18 05:31:32;;;;;;;16.85;7.78;;;7.40;99.90;;;;;;5068325;28;20029;-43
2021/11/18 05:33:58;;;;;;;14.07;7.40;;;7.40;99.90;;;;;;5067870;28;20047;-43
2021/11/18 05:36:26;;;;;;;14.15;7.10;;;7.40;99.90;;;;;;5067097;28;20044;-43
2021/11/18 05:38:52;;;;;;;17.80;7.65;;;7.40;99.90;;;;;;5068076;28;20094;-43
2021/11/18 05:41:18;;;;;;;18.33;7.53;;;7.40;99.90;;;;;;5068210;28;20476;-43
2021/11/18 05:43:44;;;;;;;18.35;7.35;;;7.40;99.90;;;;;;5067446;28;20020;-43
2021/11/18 05:46:12;;;;;;;15.85;7.93;;;7.40;99.90;;;;;;5067458;28;20125;-42
2021/11/18 05:48:38;;;;;;;14.30;6.38;;;7.40;99.90;;;;;;5047932;28;20473;-42
2021/11/18 05:51:05;;;;;;;13.35;6.57;;;7.50;99.90;;;;;;5060953;28;20452;-42
2021/11/18 05:53:36;;;;;;;15.10;7.13;;;7.50;99.90;;;;;;5067403;28;20494;-43
2021/11/18 05:56:13;;;;;;;18.90;8.20;;;7.50;99.90;;;;;;5067591;28;20426;-42
2021/11/18 05:58:41;;;;;;;15.35;7.50;;;7.50;99.90;;;;;;5067366;28;20032;-43
2021/11/18 06:01:08;;;;;;;16.77;6.85;;;7.50;99.90;;;;;;5067236;28;20078;-43
2021/11/18 06:03:34;;;;;;;17.98;7.88;;;7.50;99.90;;;;;;5066861;28;20020;-43
2021/11/18 06:06:00;;;;;;;14.93;7.45;;;7.50;99.90;;;;;;5067320;28;20038;-42
2021/11/18 06:08:25;;;;;;;13.82;6.82;;;7.60;99.90;;;;;;5067221;28;20107;-43
2021/11/18 06:10:52;;;;;;;19.48;7.95;;;7.60;99.90;;;;;;5066274;28;20020;-44
2021/11/18 06:13:24;;;;;;;13.88;7.07;;;7.60;99.90;;;;;;5067451;28;20048;-44
2021/11/18 06:15:51;;;;;;;18.75;7.53;;;7.60;99.90;;;;;;5066968;28;20119;-43
2021/11/18 06:18:16;;;;;;;16.90;7.93;;;7.60;99.90;;;;;;5067145;28;20029;-43
2021/11/18 06:20:42;;;;;;;21.13;8.30;;;7.60;99.90;;;;;;5067359;28;20158;-42
2021/11/18 06:23:10;;;;;;;22.80;8.43;;;7.60;99.90;;;;;;5066668;28;20373;-44
2021/11/18 06:25:36;;;;;;;14.98;7.30;;;7.60;99.90;;;;;;5066295;28;20033;-43
2021/11/18 06:28:04;;;;;;;19.70;9.07;;;7.60;99.90;;;;;;5066179;28;20056;-43
2021/11/18 06:30:45;;;;;;;14.70;7.70;;;7.60;99.90;;;;;;5066921;28;20032;-43
2021/11/18 06:33:14;;;;;;;20.80;8.13;;;7.70;99.90;;;;;;5066100;28;20040;-42
2021/11/18 06:35:41;;;;;;;19.33;7.53;;;7.70;99.90;;;;;;5066854;28;20380;-43
2021/11/18 06:38:07;;;;;;;17.48;7.53;;;7.70;99.90;;;;;;5066246;28;20120;-43
2021/11/18 06:40:33;;;;;;;16.08;7.20;;;7.70;99.90;;;;;;5064159;28;20024;-42
2021/11/18 06:42:58;;;;;;;19.10;7.25;;;7.70;99.90;;;;;;5066458;28;20024;-43
2021/11/18 06:45:27;;;;;;;17.73;7.88;;;7.70;99.90;;;;;;5066044;28;20050;-44
2021/11/18 06:47:53;;;;;;;19.67;8.07;;;7.70;99.90;;;;;;5063238;28;20048;-43
2021/11/18 06:50:18;;;;;;;17.42;7.80;;;7.70;99.90;;;;;;5065955;28;20052;-41
2021/11/18 06:52:44;;;;;;;15.40;8.18;;;7.70;99.90;;;;;;5064769;28;20032;-42
2021/11/18 06:55:11;;;;;;;17.13;8.00;;;7.70;99.90;;;;;;5066220;28;20016;-43
2021/11/18 06:57:37;;;;;;;17.67;8.10;;;7.70;99.90;;;;;;5065542;28;20025;-44
2021/11/18 07:00:07;;;;;;;15.27;7.63;;;7.70;99.90;;;;;;5062443;28;20019;-43
2021/11/18 07:02:33;;;;;;;19.50;8.25;;;7.60;99.90;;;;;;5065881;28;20027;-42
2021/11/18 07:04:58;;;;;;;18.17;7.85;;;7.60;99.90;;;;;;5065654;28;20021;-43
2021/11/18 07:07:24;;;;;;;21.33;8.18;;;7.60;99.90;;;;;;5065017;28;20024;-43
2021/11/18 07:09:50;;;;;;;15.70;8.40;;;7.60;99.90;;;;;;5065867;28;20032;-42
2021/11/18 07:12:19;;;;;;;18.80;8.40;;;7.60;99.90;;;;;;5065150;28;20035;-42
2021/11/18 07:14:46;;;;;;;19.67;8.50;;;7.60;99.90;;;;;;5061143;28;20054;-42
2021/11/18 07:17:12;;;;;;;16.30;7.97;;;7.70;99.90;;;;;;5065296;28;20072;-43
2021/11/18 07:19:38;;;;;;;17.35;7.45;;;7.60;99.90;;;;;;5065636;28;20075;-42
2021/11/18 07:22:04;;;;;;;22.35;8.50;;;7.60;99.90;;;;;;5064746;28;20033;-41
2021/11/18 07:24:33;;;;;;;21.25;9.15;;;7.70;99.90;;;;;;5064837;28;20025;-43
2021/11/18 07:26:58;;;;;;;22.65;8.38;;;7.70;99.90;;;;;;5065898;28;20025;-43
2021/11/18 07:29:24;;;;;;;15.13;7.60;;;7.60;99.90;;;;;;5065276;28;20025;-43
2021/11/18 07:31:52;;;;;;;19.15;8.15;;;7.60;99.90;;;;;;5066189;28;20025;-42
2021/11/18 07:34:18;;;;;;;19.50;8.23;;;7.60;99.90;;;;;;5061845;28;20454;-42
2021/11/18 07:36:45;;;;;;;21.27;8.90;;;7.60;99.90;;;;;;5060093;28;20059;-43
2021/11/18 07:39:11;;;;;;;24.42;9.25;;;7.60;99.90;;;;;;5056008;28;20021;-43
2021/11/18 07:41:37;;;;;;;23.23;9.32;;;7.60;99.90;;;;;;5066898;28;20024;-43
2021/11/18 07:44:03;;;;;;;26.25;10.15;;;7.50;99.90;;;;;;5065617;28;20025;-43
2021/11/18 07:46:28;;;;;;;22.38;9.95;;;7.50;99.90;;;;;;5063388;28;20479;-43
2021/11/18 07:48:54;;;;;;;23.80;10.50;;;7.50;99.90;;;;;;5052164;28;20098;-43
2021/11/18 07:51:22;;;;;;;18.38;8.52;;;7.50;99.90;;;;;;5070032;28;20056;-44
2021/11/18 07:53:48;;;;;;;20.67;9.55;;;7.50;99.90;;;;;;5069525;28;20500;-43
2021/11/18 07:56:17;;;;;;;17.90;8.10;;;7.40;99.90;;;;;;5068990;28;20021;-43
2021/11/18 07:58:42;;;;;;;22.00;8.90;;;7.40;99.90;;;;;;5070065;28;20040;-44
2021/11/18 08:01:09;;;;;;;15.35;7.63;;;7.40;99.90;;;;;;5069318;28;20033;-42
2021/11/18 08:03:35;;;;;;;18.73;8.52;;;7.40;99.90;;;;;;5069353;28;20890;-43
2021/11/18 08:06:02;;;;;;;21.45;9.77;;;7.40;99.90;;;;;;5068945;28;20020;-42
2021/11/18 08:08:27;;;;;;;18.58;8.90;;;7.40;99.90;;;;;;5069681;28;20028;-43
2021/11/18 08:10:53;;;;;;;19.33;8.65;;;7.40;99.90;;;;;;5068980;28;20028;-43
2021/11/18 08:13:19;;;;;;;25.63;10.73;;;7.40;99.90;;;;;;5069421;28;20439;-42
2021/11/18 08:15:45;;;;;;;20.27;9.30;;;7.50;99.90;;;;;;5068883;28;20699;-43
2021/11/18 08:18:11;;;;;;;30.70;11.85;;;7.50;99.90;;;;;;5068607;28;20106;-44
2021/11/18 08:20:37;;;;;;;31.00;12.02;;;7.50;99.90;;;;;;5069008;28;20013;-44
2021/11/18 08:23:03;;;;;;;24.40;11.60;;;7.50;99.90;;;;;;5069706;28;20029;-43
2021/11/18 08:25:31;;;;;;;32.97;13.55;;;7.50;99.90;;;;;;5068130;28;20020;-42
2021/11/18 08:27:57;;;;;;;26.90;11.98;;;7.60;99.90;;;;;;5069119;28;20032;-42
2021/11/18 08:30:32;;;;;;;28.33;11.77;;;7.60;99.90;;;;;;5068984;28;20021;-42
2021/11/18 08:33:00;;;;;;;23.83;11.70;;;7.60;99.90;;;;;;5068565;28;20089;-43
2021/11/18 08:35:31;;;;;;;35.40;13.95;;;7.60;99.90;;;;;;5068828;28;20039;-43
2021/11/18 08:37:59;;;;;;;30.00;13.02;;;7.60;99.90;;;;;;5068012;28;20039;-44
2021/11/18 08:40:26;;;;;;;31.15;13.93;;;7.60;99.90;;;;;;5068972;28;20020;-42
2021/11/18 08:42:51;;;;;;;22.65;11.80;;;7.70;99.90;;;;;;5068942;28;20030;-42
2021/11/18 08:45:17;;;;;;;23.13;10.80;;;7.70;99.90;;;;;;5068071;28;20419;-42
2021/11/18 08:47:43;;;;;;;22.10;11.20;;;7.70;99.90;;;;;;5069126;28;20033;-42
2021/11/18 08:50:12;;;;;;;30.60;11.98;;;7.70;99.90;;;;;;5068351;28;20078;-42
2021/11/18 08:52:39;;;;;;;28.67;11.93;;;7.70;99.90;;;;;;5067932;28;20040;-43
2021/11/18 08:55:13;;;;;;;26.40;12.15;;;7.80;99.90;;;;;;5068543;28;20649;-44
2021/11/18 08:57:39;;;;;;;26.60;11.43;;;7.80;99.90;;;;;;5068000;28;20031;-43
2021/11/18 09:00:12;;;;;;;29.10;11.05;;;7.80;99.90;;;;;;5067248;28;20052;-43
2021/11/18 09:02:39;;;;;;;32.08;11.98;;;7.80;99.90;;;;;;5068356;28;20116;-43
2021/11/18 09:05:05;;;;;;;29.15;12.20;;;7.90;99.90;;;;;;5068391;28;20078;-44
2021/11/18 09:07:31;;;;;;;25.80;11.68;;;7.90;99.90;;;;;;5067210;28;20028;-43
2021/11/18 09:09:56;;;;;;;29.50;12.70;;;8.00;99.90;;;;;;5068646;28;20035;-43
2021/11/18 09:12:25;;;;;;;26.10;11.23;;;8.00;99.90;;;;;;5067913;28;20457;-43
2021/11/18 09:14:50;;;;;;;30.60;12.32;;;8.10;99.90;;;;;;5067282;28;20032;-43
2021/11/18 09:17:16;;;;;;;25.00;11.88;;;8.10;99.90;;;;;;5068045;28;20052;-43
2021/11/18 09:19:43;;;;;;;30.80;12.18;;;8.10;99.90;;;;;;5068239;28;20028;-43
2021/11/18 09:22:11;;;;;;;25.90;12.32;;;8.20;99.90;;;;;;5067431;28;20100;-42
2021/11/18 09:24:51;;;;;;;26.02;11.77;;;8.20;99.90;;;;;;5067956;28;20024;-43
2021/11/18 09:27:25;;;;;;;32.75;13.50;;;8.30;99.90;;;;;;5067353;28;20024;-43
2021/11/18 09:29:52;;;;;;;29.17;12.77;;;8.30;99.90;;;;;;5065949;28;20045;-43
2021/11/18 09:32:18;;;;;;;24.35;11.65;;;8.40;99.90;;;;;;5068419;28;20502;-43
2021/11/18 09:34:43;;;;;;;28.25;11.50;;;8.40;99.90;;;;;;5066657;28;20033;-43
2021/11/18 09:37:10;;;;;;;28.58;12.00;;;8.50;99.90;;;;;;5067267;28;20031;-43
2021/11/18 09:39:36;;;;;;;28.23;12.02;;;8.50;99.90;;;;;;5064383;28;20067;-42
2021/11/18 09:42:04;;;;;;;33.42;12.50;;;8.60;99.90;;;;;;5067001;28;20052;-43
2021/11/18 09:44:48;;;;;;;31.77;12.30;;;8.60;99.90;;;;;;5067781;28;20063;-43
2021/11/18 09:48:02;;;;;;;29.70;12.68;;;8.70;99.90;;;;;;5067544;28;20028;-42
2021/11/18 09:50:45;;;;;;;29.55;12.50;;;8.70;99.90;;;;;;5066459;28;20111;-42
2021/11/18 09:53:45;;;;;;;30.23;11.38;;;8.80;99.90;;;;;;5067142;28;20045;-44
2021/11/18 09:56:59;;;;;;;31.27;12.43;;;8.80;99.90;;;;;;5065268;28;20063;-43
2021/11/18 09:59:50;;;;;;;31.83;12.90;;;8.90;99.90;;;;;;5044401;28;20039;-43
2021/11/18 10:02:39;;;;;;;30.95;12.55;;;9.00;99.90;;;;;;5048034;28;20116;-43
2021/11/18 10:05:23;;;;;;;29.58;13.27;;;9.00;99.90;;;;;;5065478;28;20029;-42
2021/11/18 10:08:00;;;;;;;30.35;12.98;;;9.10;99.90;;;;;;5066927;28;20617;-43
2021/11/18 10:10:44;;;;;;;33.05;14.82;;;9.10;99.90;;;;;;5066388;28;20048;-43
2021/11/18 10:13:51;;;;;;;33.58;13.05;;;9.20;99.90;;;;;;5065820;28;20396;-43
2021/11/18 10:16:21;;;;;;;25.17;11.65;;;9.30;99.90;;;;;;5056151;28;20064;-43
2021/11/18 10:19:02;;;;;;;30.42;12.48;;;9.30;99.90;;;;;;5066742;28;20028;-42
2021/11/18 10:21:33;;;;;;;22.42;10.60;;;9.40;99.90;;;;;;5056273;28;20158;-43
2021/11/18 10:24:07;;;;;;;31.95;11.80;;;9.40;99.90;;;;;;5066324;28;20077;-44
2021/11/18 10:26:40;;;;;;;26.88;10.43;;;9.50;99.90;;;;;;5066747;28;20558;-44
2021/11/18 10:29:08;;;;;;;;;;;9.60;99.90;;;;;;5067181;28;20028;-43
2021/11/18 10:31:49;;;;;;;27.80;12.15;;;9.70;99.90;;;;;;5065987;28;19904;-43
2021/11/18 10:34:42;;;;;;;22.67;9.95;;;9.70;99.90;;;;;;5067685;28;20032;-43
2021/11/18 10:37:19;;;;;;;26.77;10.25;;;9.80;99.90;;;;;;5057020;28;20039;-42
2021/11/18 10:40:03;;;;;;;26.80;10.40;;;9.90;99.90;;;;;;5065603;28;20033;-42
2021/11/18 10:42:38;;;;;;;25.63;9.13;;;10.00;99.90;;;;;;5066854;28;20029;-43
2021/11/18 10:45:19;;;;;;;24.25;10.02;;;10.00;99.90;;;;;;5065996;28;20020;-44
2021/11/18 10:47:51;;;;;;;32.05;11.90;;;10.10;99.90;;;;;;5066293;28;20396;-43
2021/11/18 10:50:49;;;;;;;23.42;9.45;;;10.10;99.90;;;;;;5066991;28;20028;-43
2021/11/18 10:53:26;;;;;;;26.33;9.90;;;10.10;99.90;;;;;;5066510;28;20041;-43
2021/11/18 10:56:16;;;;;;;21.92;9.52;;;10.10;99.90;;;;;;5066478;28;20165;-43
2021/11/18 10:58:45;;;;;;;26.10;10.48;;;10.10;99.90;;;;;;5065783;28;20052;-43
2021/11/18 11:01:25;;;;;;;25.63;10.02;;;10.20;99.90;;;;;;5066680;28;20071;-43
2021/11/18 11:03:52;;;;;;;25.08;9.90;;;10.20;99.90;;;;;;5066333;28;20182;-44
2021/11/18 11:06:22;;;;;;;25.42;10.23;;;10.20;99.90;;;;;;5063717;28;20025;-43
2021/11/18 11:09:09;;;;;;;28.92;11.13;;;10.20;99.90;;;;;;5062519;28;20052;-44
2021/11/18 11:11:59;;;;;;;22.17;9.07;;;10.30;99.90;;;;;;5065901;28;20036;-44
2021/11/18 11:14:52;;;;;;;31.48;10.85;;;10.30;99.90;;;;;;5065709;28;20097;-44
2021/11/18 11:17:37;;;;;;;24.80;9.65;;;10.40;99.90;;;;;;5066366;28;20076;-43
2021/11/18 11:20:30;;;;;;;26.25;9.80;;;10.40;99.90;;;;;;5065400;28;20047;-43
2021/11/18 11:23:20;;;;;;;28.60;10.10;;;10.40;99.90;;;;;;5065720;28;20025;-42
2021/11/18 11:26:07;;;;;;;24.45;9.30;;;10.50;99.90;;;;;;5070623;28;20033;-44
2021/11/18 11:28:47;;;;;;;21.48;8.50;;;10.50;99.90;;;;;;5068128;28;20492;-43
2021/11/18 11:31:46;;;;;;;25.38;8.55;;;10.50;99.90;;;;;;5070122;28;20414;-43
2021/11/18 11:34:36;;;;;;;25.83;8.23;;;10.60;99.90;;;;;;5069132;28;20123;-43
2021/11/18 11:37:04;;;;;;;25.08;8.70;;;10.60;99.90;;;;;;5070332;28;20066;-43
2021/11/18 11:39:37;;;;;;;23.13;7.82;;;10.70;99.90;;;;;;5056554;28;20041;-43
2021/11/18 11:42:31;;;;;;;21.02;7.70;;;10.60;99.90;;;;;;5057024;28;20047;-43
2021/11/18 11:45:18;;;;;;;23.50;7.05;;;10.70;99.90;;;;;;5069983;28;20033;-43
2021/11/18 11:47:59;;;;;;;22.00;7.43;;;10.60;99.90;;;;;;5069944;28;20108;-43
2021/11/18 11:50:51;;;;;;;19.55;6.90;;;10.70;99.90;;;;;;5069472;28;20464;-42
2021/11/18 11:53:51;;;;;;;18.48;6.78;;;10.70;99.90;;;;;;5069635;28;20028;-42
2021/11/18 11:56:32;;;;;;;23.35;6.68;;;10.70;99.90;;;;;;5049194;28;20206;-43
2021/11/18 11:59:11;;;;;;;22.60;6.82;;;10.70;99.90;;;;;;5068784;28;20495;-43
2021/11/18 12:01:40;;;;;;;19.98;6.53;;;10.80;99.90;;;;;;5069890;28;20103;-43
2021/11/18 12:04:22;;;;;;;20.25;6.40;;;10.80;99.90;;;;;;5068156;28;20491;-43
2021/11/18 12:06:58;;;;;;;23.45;7.35;;;10.80;99.90;;;;;;5069711;28;20037;-42
2021/11/18 12:09:49;;;;;;;18.23;6.80;;;10.90;99.90;;;;;;5068907;28;20020;-43
2021/11/18 12:12:29;;;;;;;16.35;6.13;;;10.90;99.90;;;;;;5069619;28;20028;-42
2021/11/18 12:14:56;;;;;;;20.65;6.82;;;10.90;99.90;;;;;;5066786;28;20033;-43
2021/11/18 12:17:39;;;;;;;22.20;7.28;;;10.90;99.90;;;;;;5068475;28;20127;-43
2021/11/18 12:20:18;;;;;;;23.25;7.22;;;10.90;99.90;;;;;;5067183;28;20024;-42
2021/11/18 12:22:43;;;;;;;18.73;7.10;;;10.90;99.90;;;;;;5069172;28;20035;-43
2021/11/18 12:25:22;;;;;;;22.65;7.22;;;11.00;99.90;;;;;;5068271;28;20021;-42
2021/11/18 12:28:12;;;;;;;20.60;7.50;;;11.00;99.90;;;;;;5068910;28;20036;-43
2021/11/18 12:30:47;;;;;;;17.40;7.15;;;11.00;99.90;;;;;;5067420;28;20490;-43
2021/11/18 12:33:18;;;;;;;24.35;7.60;;;11.00;99.90;;;;;;5068083;28;20033;-43
2021/11/18 12:36:25;;;;;;;19.60;7.00;;;11.00;99.90;;;;;;5067381;28;20028;-43
2021/11/18 12:39:16;;;;;;;20.60;6.72;;;11.00;99.90;;;;;;5059995;28;20508;-43
2021/11/18 12:41:42;;;;;;;21.33;7.20;;;11.10;99.90;;;;;;5068781;28;20060;-44
2021/11/18 12:44:35;;;;;;;22.20;7.40;;;11.10;99.90;;;;;;5067931;28;20423;-43
2021/11/18 12:47:14;;;;;;;18.60;6.32;;;11.10;99.90;;;;;;5068746;28;20032;-43
2021/11/18 12:49:57;;;;;;;16.00;6.13;;;11.10;99.90;;;;;;5068493;28;20019;-43
2021/11/18 12:52:29;;;;;;;19.80;6.22;;;11.20;99.90;;;;;;5067891;28;20028;-43
2021/11/18 12:55:07;;;;;;;18.38;7.05;;;11.20;99.90;;;;;;5068245;28;20341;-44
2021/11/18 12:57:35;;;;;;;18.50;6.30;;;11.20;99.90;;;;;;5068597;28;20035;-43
2021/11/18 13:00:09;;;;;;;19.02;6.05;;;11.30;99.90;;;;;;5067370;28;20016;-44
2021/11/18 13:02:38;;;;;;;17.50;5.68;;;11.40;99.90;;;;;;5068738;28;20029;-44
2021/11/18 13:05:09;;;;;;;15.77;5.10;;;11.50;99.90;;;;;;5067735;28;20021;-43